createdAt,value
2023-05-11T00:01:59.964Z,8.30
2023-05-11T00:07:07.448Z,8.60
2023-05-11T00:12:14.706Z,8.10
2023-05-11T00:17:22.213Z,8.30
2023-05-11T00:22:31.043Z,8.70
2023-05-11T00:27:41.402Z,8.10
2023-05-11T00:32:49.331Z,8.40
2023-05-11T00:37:57.300Z,8.30
2023-05-11T00:43:04.744Z,8.90
2023-05-11T00:48:12.326Z,8.40
2023-05-11T00:53:19.871Z,7.80
2023-05-11T00:58:28.450Z,8.10
2023-05-11T01:03:36.700Z,8.20
2023-05-11T01:08:49.219Z,8.10
2023-05-11T01:14:02.980Z,8.40
2023-05-11T01:19:19.986Z,7.80
2023-05-11T01:24:50.280Z,8.70
2023-05-11T01:30:27.986Z,8.30
2023-05-11T01:35:40.906Z,8.30
2023-05-11T01:40:53.818Z,8.50
2023-05-11T01:46:04.676Z,7.90
2023-05-11T01:51:15.935Z,9.20
2023-05-11T01:56:27.189Z,9.40
2023-05-11T02:01:38.063Z,8.30
2023-05-11T02:06:46.811Z,8.30
2023-05-11T02:11:58.198Z,8.40
2023-05-11T02:17:07.948Z,9.30
2023-05-11T02:22:16.330Z,8.80
2023-05-11T02:27:23.848Z,9.40
2023-05-11T02:32:32.259Z,9.10
2023-05-11T02:37:45.210Z,10.00
2023-05-11T02:42:58.723Z,8.60
2023-05-11T02:48:10.730Z,8.60
2023-05-11T02:53:20.222Z,9.20
2023-05-11T03:03:31.940Z,9.50
2023-05-11T03:08:40.900Z,9.90
2023-05-11T03:13:50.371Z,9.10
2023-05-11T03:18:59.535Z,10.30
2023-05-11T03:24:09.813Z,11.00
2023-05-11T03:29:19.317Z,9.30
2023-05-11T03:34:28.063Z,8.50
2023-05-11T03:39:38.024Z,9.70
2023-05-11T03:44:47.727Z,9.80
2023-05-11T03:49:57.749Z,10.50
2023-05-11T03:55:06.998Z,11.10
2023-05-11T04:00:16.795Z,9.60
2023-05-11T04:05:24.478Z,10.20
2023-05-11T04:10:33.681Z,8.80
2023-05-11T04:15:41.423Z,10.20
2023-05-11T04:20:49.155Z,10.10
2023-05-11T04:25:59.725Z,10.70
2023-05-11T04:31:07.572Z,10.30
2023-05-11T04:36:17.123Z,12.00
2023-05-11T04:41:24.354Z,9.50
2023-05-11T04:46:32.105Z,12.30
2023-05-11T04:51:41.254Z,11.90
2023-05-11T04:56:49.025Z,10.30
2023-05-11T05:01:56.361Z,13.20
2023-05-11T05:07:04.622Z,12.60
2023-05-11T05:12:12.175Z,11.70
2023-05-11T05:17:19.479Z,12.00
2023-05-11T05:22:27.222Z,12.00
2023-05-11T05:27:35.189Z,12.80
2023-05-11T05:32:42.593Z,11.10
2023-05-11T05:37:49.832Z,12.40
2023-05-11T05:42:57.001Z,13.20
2023-05-11T05:52:53.547Z,11.20
2023-05-11T05:58:01.337Z,12.70
2023-05-11T06:03:09.124Z,12.50
2023-05-11T06:08:16.972Z,12.10
2023-05-11T06:13:24.504Z,11.70
2023-05-11T06:18:32.060Z,12.10
2023-05-11T06:23:39.485Z,14.80
2023-05-11T06:28:47.072Z,14.30
2023-05-11T06:33:55.336Z,13.30
2023-05-11T06:39:03.084Z,15.60
2023-05-11T06:44:13.234Z,15.30
2023-05-11T06:49:20.895Z,13.60
2023-05-11T06:54:28.457Z,14.90
2023-05-11T06:59:35.829Z,12.70
2023-05-11T07:04:44.742Z,14.20
2023-05-11T07:09:52.332Z,14.80
2023-05-11T07:14:59.622Z,14.20
2023-05-11T07:20:09.020Z,13.50
2023-05-11T07:25:16.511Z,14.10
2023-05-11T07:30:24.995Z,13.00
2023-05-11T07:35:33.186Z,12.40
2023-05-11T07:40:41.647Z,12.10
2023-05-11T07:45:48.917Z,12.70
2023-05-11T07:50:56.698Z,11.50
2023-05-11T07:56:04.959Z,12.10
2023-05-11T08:01:12.829Z,11.50
2023-05-11T08:06:20.302Z,10.20
2023-05-11T08:11:28.146Z,10.80
2023-05-11T08:16:37.249Z,9.60
2023-05-11T08:21:46.744Z,10.00
2023-05-11T08:26:54.181Z,9.80
2023-05-11T08:32:01.873Z,10.50
2023-05-11T08:37:09.545Z,9.10
2023-05-11T08:42:19.361Z,7.70
2023-05-11T08:50:12.151Z,7.50
2023-05-11T08:55:21.197Z,8.40
2023-05-11T09:00:29.582Z,7.80
2023-05-11T09:05:38.326Z,6.30
2023-05-11T09:10:46.695Z,7.60
2023-05-11T09:15:54.597Z,8.00
2023-05-11T09:21:03.454Z,7.70
2023-05-11T09:26:18.432Z,7.50
2023-05-11T09:31:46.070Z,7.10
2023-05-11T09:36:55.634Z,6.80
2023-05-11T09:42:20.268Z,6.10
2023-05-11T09:47:30.854Z,6.10
2023-05-11T09:52:51.483Z,5.60
2023-05-11T09:58:00.237Z,5.20
2023-05-11T10:03:09.757Z,3.90
2023-05-11T10:08:17.727Z,5.80
2023-05-11T10:13:26.902Z,5.90
2023-05-11T10:18:34.542Z,5.50
2023-05-11T10:23:42.727Z,5.00
2023-05-11T10:28:50.417Z,3.90
2023-05-11T10:33:58.734Z,4.00
2023-05-11T10:39:06.227Z,4.50
2023-05-11T10:44:40.862Z,3.40
2023-05-11T10:54:56.957Z,3.10
2023-05-11T11:00:43.767Z,4.00
2023-05-11T11:05:51.689Z,3.60
2023-05-11T11:11:00.257Z,3.10
2023-05-11T11:16:16.732Z,3.80
2023-05-11T11:21:44.600Z,3.50
2023-05-11T11:26:53.812Z,3.60
2023-05-11T11:32:30.456Z,3.80
2023-05-11T11:43:18.469Z,3.60
2023-05-11T11:48:32.418Z,3.50
2023-05-11T11:54:09.826Z,4.30
2023-05-11T11:59:18.549Z,3.60
2023-05-11T12:04:47.728Z,3.40
2023-05-11T12:09:56.274Z,3.40
2023-05-11T12:15:04.453Z,4.10
2023-05-11T12:20:23.033Z,3.60
2023-05-11T12:25:31.273Z,3.50
2023-05-11T12:30:39.339Z,3.90
2023-05-11T12:35:47.119Z,3.90
2023-05-11T12:40:55.022Z,3.00
2023-05-11T12:46:02.692Z,3.90
2023-05-11T12:53:20.215Z,3.30
2023-05-11T12:58:27.885Z,3.60
2023-05-11T13:03:37.088Z,3.50
2023-05-11T13:08:48.072Z,3.80
2023-05-11T13:13:58.275Z,4.30
2023-05-11T13:19:08.361Z,3.80
2023-05-11T13:24:24.588Z,3.70
2023-05-11T13:29:31.934Z,4.40
2023-05-11T13:34:39.594Z,3.70
2023-05-11T13:39:47.950Z,3.70
2023-05-11T13:44:55.321Z,3.70
2023-05-11T13:50:03.040Z,3.80
2023-05-11T13:55:12.900Z,4.10
2023-05-11T14:00:22.860Z,3.80
2023-05-11T14:08:31.998Z,4.50
2023-05-11T14:13:36.011Z,4.40
2023-05-11T14:18:40.709Z,3.90
2023-05-11T14:23:57.754Z,4.40
2023-05-11T14:29:06.556Z,4.00
2023-05-11T14:34:10.659Z,4.50
2023-05-11T14:39:14.411Z,3.80
2023-05-11T14:44:18.232Z,2.90
2023-05-11T14:49:22.334Z,4.00
2023-05-11T14:54:26.149Z,4.00
2023-05-11T14:59:30.651Z,4.10
2023-05-11T15:04:34.923Z,3.90
2023-05-11T15:09:38.744Z,3.90
2023-05-11T15:14:43.406Z,3.40
2023-05-11T15:19:47.724Z,3.80
2023-05-11T15:24:51.545Z,2.80
2023-05-11T15:29:55.675Z,4.20
2023-05-11T15:35:00.246Z,4.50
2023-05-11T15:40:06.254Z,4.10
2023-05-11T15:45:10.951Z,3.70
2023-05-11T15:50:15.147Z,3.60
2023-05-11T15:55:19.114Z,3.80
2023-05-11T16:00:22.936Z,3.90
2023-05-11T16:05:28.373Z,3.40
2023-05-11T16:10:32.064Z,5.00
2023-05-11T16:15:35.915Z,4.90
2023-05-11T16:20:39.840Z,5.90
2023-05-11T16:25:43.789Z,5.40
2023-05-11T16:30:47.683Z,5.20
2023-05-11T16:35:52.489Z,6.60
2023-05-11T16:40:56.467Z,6.40
2023-05-11T16:46:00.915Z,5.90
2023-05-11T16:51:05.164Z,5.00
2023-05-11T16:56:08.968Z,5.10
2023-05-11T17:01:12.787Z,5.40
2023-05-11T17:06:20.783Z,5.60
2023-05-11T17:11:24.735Z,5.70
2023-05-11T17:16:28.716Z,5.50
2023-05-11T17:21:32.980Z,6.20
2023-05-11T17:26:46.984Z,7.90
2023-05-11T17:31:52.297Z,8.50
2023-05-11T17:36:56.984Z,8.10
2023-05-11T17:42:01.373Z,7.30
2023-05-11T17:47:06.500Z,6.30
2023-05-11T17:52:10.373Z,6.40
2023-05-11T17:57:14.215Z,7.30
2023-05-11T18:02:18.680Z,8.90
2023-05-11T18:07:22.557Z,8.40
2023-05-11T18:12:26.593Z,6.70
2023-05-11T18:17:31.474Z,8.30
2023-05-11T18:22:35.575Z,7.70
2023-05-11T18:27:39.385Z,7.20
2023-05-11T18:32:44.093Z,6.90
2023-05-11T18:37:48.582Z,7.80
2023-05-11T18:42:55.716Z,7.70
2023-05-11T18:48:00.070Z,8.60
2023-05-11T18:53:03.992Z,7.80
2023-05-11T18:58:07.566Z,9.20
2023-05-11T19:03:11.306Z,9.50
2023-05-11T19:08:15.978Z,9.00
2023-05-11T19:13:19.763Z,8.90
2023-05-11T19:18:25.009Z,9.00
2023-05-11T19:23:29.843Z,9.30
2023-05-11T19:28:33.778Z,7.80
2023-05-11T19:33:37.905Z,8.80
2023-05-11T19:38:41.647Z,8.80
2023-05-11T19:43:45.647Z,8.70
2023-05-11T19:48:49.465Z,9.10
2023-05-11T19:53:53.817Z,7.60
2023-05-11T19:58:57.426Z,10.80
2023-05-11T20:04:01.757Z,9.60
2023-05-11T20:09:06.808Z,9.40
2023-05-11T20:14:11.214Z,9.10
2023-05-11T20:19:15.563Z,9.50
2023-05-11T20:24:21.152Z,8.70
2023-05-11T20:29:25.085Z,8.70
2023-05-11T20:34:29.981Z,9.10
2023-05-11T20:39:34.134Z,8.80
2023-05-11T20:44:37.985Z,8.60
2023-05-11T20:49:41.940Z,8.40
2023-05-11T20:54:47.779Z,9.20
2023-05-11T21:05:01.388Z,9.20
2023-05-11T21:10:06.726Z,10.50
2023-05-11T21:15:11.264Z,9.90
2023-05-11T21:20:15.195Z,10.00
2023-05-11T21:25:19.271Z,10.30
2023-05-11T21:30:22.915Z,9.90
2023-05-11T21:35:26.767Z,10.20
2023-05-11T21:40:31.806Z,11.00
2023-05-11T21:45:35.733Z,10.70
2023-05-11T21:50:39.748Z,10.50
2023-05-11T21:55:43.976Z,10.40
2023-05-11T22:00:47.851Z,12.00
2023-05-11T22:05:51.756Z,10.80
2023-05-11T22:10:55.676Z,10.10
2023-05-11T22:15:59.516Z,10.30
2023-05-11T22:21:04.244Z,12.70
2023-05-11T22:26:07.988Z,10.60
2023-05-11T22:31:12.365Z,11.60
2023-05-11T22:36:16.137Z,10.60
2023-05-11T22:41:20.465Z,10.10
2023-05-11T22:46:24.263Z,10.70
2023-05-11T22:51:29.122Z,12.00
2023-05-11T22:56:33.286Z,12.40
2023-05-11T23:01:37.297Z,12.20
2023-05-11T23:06:41.167Z,13.30
2023-05-11T23:11:45.059Z,10.00
2023-05-11T23:16:48.976Z,11.70
2023-05-11T23:21:53.015Z,10.90
2023-05-11T23:26:56.975Z,10.50
2023-05-11T23:32:01.463Z,12.00
2023-05-11T23:37:06.217Z,11.50
2023-05-11T23:42:10.693Z,9.70
2023-05-11T23:47:14.757Z,10.20
2023-05-11T23:52:19.107Z,9.70
2023-05-11T23:57:22.944Z,9.40
